Aviation Digital Data Service (ADDS)

Output produced by METARs form (1505 UTC 03 June 2020)
found at http://www.aviationweather.gov/metar/data/
 
KDRO 031453Z AUTO 00000KT 10SM CLR 20/05 A3029 RMK AO2 SLP167 T02000050 50004
KDRO 031122Z 0312/0412 03004KT P6SM SKC 
     FM031800 25006KT P6SM FEW100 BKN200 
     FM032100 29010G20KT P6SM BKN200 
     FM040300 04005KT P6SM SCT200 
     FM040900 35004KT P6SM FEW200
       
KFMN 031453Z 12007KT 10SM CLR 21/05 A3020 RMK AO2 SLP160 T02110050 51008
KFMN 031127Z 0312/0412 VRB06KT P6SM FEW200 
     FM032100 29012G18KT P6SM FEW150 
     FM040200 03006KT P6SM FEW200